sensor_id;sensor_type;location;lat;lon;timestamp;P1;durP1;ratioP1;P2;durP2;ratioP2
41653;SDS011;68687;52.030;7.110;2023-11-19T00:00:32;41.25;;;21.95;;
41653;SDS011;68687;52.030;7.110;2023-11-19T00:02:58;42.22;;;22.67;;
41653;SDS011;68687;52.030;7.110;2023-11-19T00:05:23;41.95;;;23.45;;
41653;SDS011;68687;52.030;7.110;2023-11-19T00:07:48;48.55;;;25.15;;
41653;SDS011;68687;52.030;7.110;2023-11-19T00:10:14;46.35;;;24.27;;
41653;SDS011;68687;52.030;7.110;2023-11-19T00:12:47;43.47;;;23.65;;
41653;SDS011;68687;52.030;7.110;2023-11-19T00:15:13;45.22;;;23.75;;
41653;SDS011;68687;52.030;7.110;2023-11-19T00:17:44;49.10;;;24.48;;
41653;SDS011;68687;52.030;7.110;2023-11-19T00:20:13;46.50;;;23.80;;
41653;SDS011;68687;52.030;7.110;2023-11-19T00:22:40;47.85;;;24.75;;
41653;SDS011;68687;52.030;7.110;2023-11-19T00:25:12;46.65;;;24.42;;
41653;SDS011;68687;52.030;7.110;2023-11-19T00:27:38;51.92;;;25.35;;
41653;SDS011;68687;52.030;7.110;2023-11-19T00:30:04;50.13;;;25.98;;
41653;SDS011;68687;52.030;7.110;2023-11-19T00:32:31;55.22;;;28.88;;
41653;SDS011;68687;52.030;7.110;2023-11-19T00:34:59;56.17;;;28.08;;
41653;SDS011;68687;52.030;7.110;2023-11-19T00:40:46;59.42;;;30.13;;
41653;SDS011;68687;52.030;7.110;2023-11-19T00:43:11;61.10;;;29.33;;
41653;SDS011;68687;52.030;7.110;2023-11-19T00:45:37;51.60;;;28.65;;
41653;SDS011;68687;52.030;7.110;2023-11-19T00:48:02;58.13;;;29.70;;
41653;SDS011;68687;52.030;7.110;2023-11-19T00:50:27;54.75;;;28.52;;
41653;SDS011;68687;52.030;7.110;2023-11-19T00:57:54;57.97;;;29.63;;
41653;SDS011;68687;52.030;7.110;2023-11-19T01:00:24;64.68;;;31.00;;
41653;SDS011;68687;52.030;7.110;2023-11-19T01:02:57;60.97;;;31.02;;
41653;SDS011;68687;52.030;7.110;2023-11-19T01:05:23;66.65;;;31.85;;
41653;SDS011;68687;52.030;7.110;2023-11-19T01:07:48;69.80;;;32.10;;
41653;SDS011;68687;52.030;7.110;2023-11-19T01:10:16;64.57;;;31.38;;
41653;SDS011;68687;52.030;7.110;2023-11-19T01:12:43;60.78;;;29.92;;
41653;SDS011;68687;52.030;7.110;2023-11-19T01:15:11;65.15;;;31.17;;
41653;SDS011;68687;52.030;7.110;2023-11-19T01:17:38;62.88;;;30.83;;
41653;SDS011;68687;52.030;7.110;2023-11-19T01:20:03;64.65;;;30.15;;
41653;SDS011;68687;52.030;7.110;2023-11-19T01:22:31;70.95;;;31.88;;
41653;SDS011;68687;52.030;7.110;2023-11-19T01:24:56;56.58;;;29.85;;
41653;SDS011;68687;52.030;7.110;2023-11-19T01:27:25;61.47;;;31.10;;
41653;SDS011;68687;52.030;7.110;2023-11-19T01:29:51;66.15;;;31.90;;
41653;SDS011;68687;52.030;7.110;2023-11-19T01:32:16;61.30;;;30.15;;
41653;SDS011;68687;52.030;7.110;2023-11-19T01:34:41;69.75;;;31.48;;
41653;SDS011;68687;52.030;7.110;2023-11-19T01:37:07;65.03;;;30.75;;
41653;SDS011;68687;52.030;7.110;2023-11-19T01:39:37;63.10;;;29.25;;
41653;SDS011;68687;52.030;7.110;2023-11-19T01:42:03;56.53;;;29.30;;
41653;SDS011;68687;52.030;7.110;2023-11-19T01:44:31;61.40;;;29.83;;
41653;SDS011;68687;52.030;7.110;2023-11-19T01:46:57;55.42;;;28.33;;
41653;SDS011;68687;52.030;7.110;2023-11-19T01:49:22;53.17;;;27.33;;
41653;SDS011;68687;52.030;7.110;2023-11-19T01:51:48;57.05;;;27.15;;
41653;SDS011;68687;52.030;7.110;2023-11-19T01:54:14;52.03;;;28.02;;
41653;SDS011;68687;52.030;7.110;2023-11-19T01:56:40;56.55;;;26.20;;
41653;SDS011;68687;52.030;7.110;2023-11-19T01:59:06;50.50;;;26.08;;
41653;SDS011;68687;52.030;7.110;2023-11-19T02:01:34;56.60;;;28.85;;
41653;SDS011;68687;52.030;7.110;2023-11-19T02:04:07;55.97;;;26.20;;
41653;SDS011;68687;52.030;7.110;2023-11-19T02:06:34;55.53;;;26.02;;
41653;SDS011;68687;52.030;7.110;2023-11-19T02:09:02;50.85;;;26.50;;
41653;SDS011;68687;52.030;7.110;2023-11-19T02:11:32;49.55;;;25.38;;
41653;SDS011;68687;52.030;7.110;2023-11-19T02:13:58;50.30;;;26.73;;
41653;SDS011;68687;52.030;7.110;2023-11-19T02:16:26;55.28;;;25.77;;
41653;SDS011;68687;52.030;7.110;2023-11-19T02:18:56;48.85;;;23.27;;
41653;SDS011;68687;52.030;7.110;2023-11-19T02:21:21;50.30;;;23.60;;
41653;SDS011;68687;52.030;7.110;2023-11-19T02:23:46;51.00;;;22.67;;
41653;SDS011;68687;52.030;7.110;2023-11-19T02:26:13;45.20;;;21.42;;
41653;SDS011;68687;52.030;7.110;2023-11-19T02:28:43;51.15;;;21.17;;
41653;SDS011;68687;52.030;7.110;2023-11-19T02:31:08;47.13;;;21.38;;
41653;SDS011;68687;52.030;7.110;2023-11-19T02:33:35;46.20;;;20.65;;
41653;SDS011;68687;52.030;7.110;2023-11-19T02:36:01;50.03;;;20.42;;
41653;SDS011;68687;52.030;7.110;2023-11-19T02:38:27;46.90;;;21.90;;
41653;SDS011;68687;52.030;7.110;2023-11-19T02:40:52;38.30;;;20.95;;
41653;SDS011;68687;52.030;7.110;2023-11-19T02:43:17;41.88;;;22.42;;
41653;SDS011;68687;52.030;7.110;2023-11-19T02:45:43;44.63;;;18.63;;
41653;SDS011;68687;52.030;7.110;2023-11-19T02:48:10;39.33;;;20.17;;
41653;SDS011;68687;52.030;7.110;2023-11-19T02:50:36;39.58;;;18.52;;
41653;SDS011;68687;52.030;7.110;2023-11-19T02:53:01;40.88;;;18.77;;
41653;SDS011;68687;52.030;7.110;2023-11-19T02:55:27;43.70;;;18.40;;
41653;SDS011;68687;52.030;7.110;2023-11-19T02:57:55;38.20;;;17.65;;
41653;SDS011;68687;52.030;7.110;2023-11-19T03:00:22;42.50;;;18.52;;
41653;SDS011;68687;52.030;7.110;2023-11-19T03:03:02;44.80;;;18.25;;
41653;SDS011;68687;52.030;7.110;2023-11-19T03:05:42;36.17;;;18.73;;
41653;SDS011;68687;52.030;7.110;2023-11-19T03:08:09;33.58;;;17.35;;
41653;SDS011;68687;52.030;7.110;2023-11-19T03:10:34;36.13;;;15.80;;
41653;SDS011;68687;52.030;7.110;2023-11-19T03:13:00;42.95;;;16.30;;
41653;SDS011;68687;52.030;7.110;2023-11-19T03:15:27;36.33;;;14.98;;
41653;SDS011;68687;52.030;7.110;2023-11-19T03:17:52;30.98;;;13.95;;
41653;SDS011;68687;52.030;7.110;2023-11-19T03:20:17;34.25;;;14.98;;
41653;SDS011;68687;52.030;7.110;2023-11-19T03:22:43;29.73;;;13.65;;
41653;SDS011;68687;52.030;7.110;2023-11-19T03:25:09;32.78;;;14.23;;
41653;SDS011;68687;52.030;7.110;2023-11-19T03:27:35;29.70;;;12.20;;
41653;SDS011;68687;52.030;7.110;2023-11-19T03:30:04;32.63;;;12.60;;
41653;SDS011;68687;52.030;7.110;2023-11-19T03:32:31;31.27;;;12.38;;
41653;SDS011;68687;52.030;7.110;2023-11-19T03:34:57;37.78;;;12.32;;
41653;SDS011;68687;52.030;7.110;2023-11-19T03:37:22;30.73;;;12.68;;
41653;SDS011;68687;52.030;7.110;2023-11-19T03:39:48;32.17;;;12.27;;
41653;SDS011;68687;52.030;7.110;2023-11-19T03:42:14;39.00;;;11.40;;
41653;SDS011;68687;52.030;7.110;2023-11-19T03:44:39;32.05;;;10.95;;
41653;SDS011;68687;52.030;7.110;2023-11-19T03:47:04;33.22;;;11.35;;
41653;SDS011;68687;52.030;7.110;2023-11-19T03:49:29;34.75;;;10.95;;
41653;SDS011;68687;52.030;7.110;2023-11-19T03:51:55;30.63;;;10.30;;
41653;SDS011;68687;52.030;7.110;2023-11-19T03:54:20;40.30;;;10.02;;
41653;SDS011;68687;52.030;7.110;2023-11-19T03:56:48;35.25;;;10.40;;
41653;SDS011;68687;52.030;7.110;2023-11-19T03:59:13;41.85;;;11.70;;
41653;SDS011;68687;52.030;7.110;2023-11-19T04:01:40;31.98;;;9.27;;
41653;SDS011;68687;52.030;7.110;2023-11-19T04:04:05;33.67;;;9.73;;
41653;SDS011;68687;52.030;7.110;2023-11-19T04:06:31;33.80;;;9.43;;
41653;SDS011;68687;52.030;7.110;2023-11-19T04:08:56;34.47;;;9.55;;
41653;SDS011;68687;52.030;7.110;2023-11-19T04:11:21;32.92;;;9.30;;
41653;SDS011;68687;52.030;7.110;2023-11-19T04:13:47;31.60;;;9.18;;
41653;SDS011;68687;52.030;7.110;2023-11-19T04:16:12;36.75;;;8.70;;
41653;SDS011;68687;52.030;7.110;2023-11-19T04:18:37;33.70;;;9.32;;
41653;SDS011;68687;52.030;7.110;2023-11-19T04:21:05;35.00;;;9.23;;
41653;SDS011;68687;52.030;7.110;2023-11-19T04:23:31;41.45;;;8.95;;
41653;SDS011;68687;52.030;7.110;2023-11-19T04:25:56;32.88;;;10.45;;
41653;SDS011;68687;52.030;7.110;2023-11-19T04:28:21;35.00;;;8.95;;
41653;SDS011;68687;52.030;7.110;2023-11-19T04:30:47;35.58;;;9.48;;
41653;SDS011;68687;52.030;7.110;2023-11-19T04:33:12;39.38;;;9.10;;
41653;SDS011;68687;52.030;7.110;2023-11-19T04:35:37;35.80;;;8.05;;
41653;SDS011;68687;52.030;7.110;2023-11-19T04:38:03;47.47;;;9.18;;
41653;SDS011;68687;52.030;7.110;2023-11-19T04:40:28;43.70;;;8.68;;
41653;SDS011;68687;52.030;7.110;2023-11-19T04:42:53;48.40;;;9.73;;
41653;SDS011;68687;52.030;7.110;2023-11-19T04:45:19;44.95;;;8.50;;
41653;SDS011;68687;52.030;7.110;2023-11-19T04:47:45;36.35;;;8.75;;
41653;SDS011;68687;52.030;7.110;2023-11-19T04:50:10;39.10;;;8.63;;
41653;SDS011;68687;52.030;7.110;2023-11-19T04:52:38;34.13;;;7.88;;
41653;SDS011;68687;52.030;7.110;2023-11-19T04:55:05;44.80;;;8.57;;
41653;SDS011;68687;52.030;7.110;2023-11-19T04:57:31;30.52;;;7.60;;
41653;SDS011;68687;52.030;7.110;2023-11-19T04:59:57;40.35;;;8.20;;
41653;SDS011;68687;52.030;7.110;2023-11-19T05:02:23;36.50;;;7.75;;
41653;SDS011;68687;52.030;7.110;2023-11-19T05:04:48;40.83;;;8.55;;
41653;SDS011;68687;52.030;7.110;2023-11-19T05:07:14;38.92;;;7.45;;
41653;SDS011;68687;52.030;7.110;2023-11-19T05:09:39;41.55;;;7.50;;
41653;SDS011;68687;52.030;7.110;2023-11-19T05:12:04;40.70;;;9.00;;
41653;SDS011;68687;52.030;7.110;2023-11-19T05:14:30;44.92;;;8.23;;
41653;SDS011;68687;52.030;7.110;2023-11-19T05:16:55;40.65;;;8.32;;
41653;SDS011;68687;52.030;7.110;2023-11-19T05:19:21;48.70;;;9.27;;
41653;SDS011;68687;52.030;7.110;2023-11-19T05:21:46;53.47;;;10.50;;
41653;SDS011;68687;52.030;7.110;2023-11-19T05:24:12;48.25;;;10.73;;
41653;SDS011;68687;52.030;7.110;2023-11-19T05:26:37;42.03;;;8.85;;
41653;SDS011;68687;52.030;7.110;2023-11-19T05:29:03;47.42;;;9.30;;
41653;SDS011;68687;52.030;7.110;2023-11-19T05:31:29;53.83;;;10.23;;
41653;SDS011;68687;52.030;7.110;2023-11-19T05:33:55;33.70;;;8.43;;
41653;SDS011;68687;52.030;7.110;2023-11-19T05:36:20;44.53;;;8.45;;
41653;SDS011;68687;52.030;7.110;2023-11-19T05:38:45;33.42;;;9.77;;
41653;SDS011;68687;52.030;7.110;2023-11-19T05:41:11;43.08;;;7.40;;
41653;SDS011;68687;52.030;7.110;2023-11-19T05:43:36;39.60;;;7.82;;
41653;SDS011;68687;52.030;7.110;2023-11-19T05:46:02;46.55;;;8.65;;
41653;SDS011;68687;52.030;7.110;2023-11-19T05:48:28;48.47;;;8.82;;
41653;SDS011;68687;52.030;7.110;2023-11-19T05:50:53;39.05;;;9.30;;
41653;SDS011;68687;52.030;7.110;2023-11-19T05:53:19;51.65;;;9.07;;
41653;SDS011;68687;52.030;7.110;2023-11-19T05:55:45;48.10;;;9.10;;
41653;SDS011;68687;52.030;7.110;2023-11-19T06:00:54;49.28;;;8.38;;
41653;SDS011;68687;52.030;7.110;2023-11-19T06:03:20;55.63;;;9.70;;
41653;SDS011;68687;52.030;7.110;2023-11-19T06:05:46;54.50;;;8.50;;
41653;SDS011;68687;52.030;7.110;2023-11-19T06:08:14;45.13;;;8.32;;
41653;SDS011;68687;52.030;7.110;2023-11-19T06:10:43;48.03;;;9.15;;
41653;SDS011;68687;52.030;7.110;2023-11-19T06:13:11;47.90;;;8.85;;
41653;SDS011;68687;52.030;7.110;2023-11-19T06:15:36;57.13;;;9.05;;
41653;SDS011;68687;52.030;7.110;2023-11-19T06:18:02;45.60;;;8.02;;
41653;SDS011;68687;52.030;7.110;2023-11-19T06:20:32;52.28;;;8.70;;
41653;SDS011;68687;52.030;7.110;2023-11-19T06:22:58;63.05;;;9.20;;
41653;SDS011;68687;52.030;7.110;2023-11-19T06:25:23;48.15;;;9.05;;
41653;SDS011;68687;52.030;7.110;2023-11-19T06:27:49;47.17;;;8.95;;
41653;SDS011;68687;52.030;7.110;2023-11-19T06:30:15;44.83;;;9.50;;
41653;SDS011;68687;52.030;7.110;2023-11-19T06:32:40;48.15;;;11.98;;
41653;SDS011;68687;52.030;7.110;2023-11-19T06:35:05;42.22;;;8.73;;
41653;SDS011;68687;52.030;7.110;2023-11-19T06:37:31;57.83;;;9.65;;
41653;SDS011;68687;52.030;7.110;2023-11-19T06:39:56;55.72;;;9.15;;
41653;SDS011;68687;52.030;7.110;2023-11-19T06:42:21;38.22;;;10.05;;
41653;SDS011;68687;52.030;7.110;2023-11-19T06:44:47;55.45;;;8.73;;
41653;SDS011;68687;52.030;7.110;2023-11-19T06:47:12;49.58;;;8.55;;
41653;SDS011;68687;52.030;7.110;2023-11-19T06:49:37;45.92;;;7.95;;
41653;SDS011;68687;52.030;7.110;2023-11-19T06:52:02;60.28;;;8.18;;
41653;SDS011;68687;52.030;7.110;2023-11-19T06:54:29;67.28;;;10.45;;
41653;SDS011;68687;52.030;7.110;2023-11-19T06:56:54;56.25;;;9.27;;
41653;SDS011;68687;52.030;7.110;2023-11-19T06:59:20;59.45;;;12.35;;
41653;SDS011;68687;52.030;7.110;2023-11-19T07:01:46;54.47;;;9.68;;
41653;SDS011;68687;52.030;7.110;2023-11-19T07:04:11;65.45;;;11.73;;
41653;SDS011;68687;52.030;7.110;2023-11-19T07:06:37;44.85;;;13.52;;
41653;SDS011;68687;52.030;7.110;2023-11-19T07:09:03;45.08;;;9.45;;
41653;SDS011;68687;52.030;7.110;2023-11-19T07:11:35;42.97;;;8.35;;
41653;SDS011;68687;52.030;7.110;2023-11-19T07:14:01;57.50;;;10.57;;
41653;SDS011;68687;52.030;7.110;2023-11-19T07:16:27;43.33;;;9.57;;
41653;SDS011;68687;52.030;7.110;2023-11-19T07:18:53;38.30;;;8.80;;
41653;SDS011;68687;52.030;7.110;2023-11-19T07:21:19;53.83;;;9.43;;
41653;SDS011;68687;52.030;7.110;2023-11-19T07:23:44;56.20;;;9.75;;
41653;SDS011;68687;52.030;7.110;2023-11-19T07:26:10;56.30;;;11.85;;
41653;SDS011;68687;52.030;7.110;2023-11-19T07:28:35;68.28;;;8.95;;
41653;SDS011;68687;52.030;7.110;2023-11-19T07:31:01;76.75;;;10.02;;
41653;SDS011;68687;52.030;7.110;2023-11-19T07:33:26;46.00;;;9.30;;
41653;SDS011;68687;52.030;7.110;2023-11-19T07:35:52;60.20;;;9.90;;
41653;SDS011;68687;52.030;7.110;2023-11-19T07:38:17;50.60;;;8.27;;
41653;SDS011;68687;52.030;7.110;2023-11-19T07:40:43;58.58;;;9.40;;
41653;SDS011;68687;52.030;7.110;2023-11-19T07:43:08;50.53;;;9.80;;
41653;SDS011;68687;52.030;7.110;2023-11-19T07:45:33;52.85;;;8.35;;
41653;SDS011;68687;52.030;7.110;2023-11-19T07:47:59;42.35;;;8.43;;
41653;SDS011;68687;52.030;7.110;2023-11-19T07:50:26;58.85;;;10.27;;
41653;SDS011;68687;52.030;7.110;2023-11-19T07:52:51;64.50;;;8.35;;
41653;SDS011;68687;52.030;7.110;2023-11-19T07:55:17;51.28;;;8.93;;
41653;SDS011;68687;52.030;7.110;2023-11-19T07:57:42;51.35;;;8.50;;
41653;SDS011;68687;52.030;7.110;2023-11-19T08:00:07;48.00;;;9.77;;
41653;SDS011;68687;52.030;7.110;2023-11-19T08:02:37;65.70;;;11.10;;
41653;SDS011;68687;52.030;7.110;2023-11-19T08:05:05;57.63;;;9.10;;
41653;SDS011;68687;52.030;7.110;2023-11-19T08:07:31;56.83;;;12.63;;
41653;SDS011;68687;52.030;7.110;2023-11-19T08:09:56;49.72;;;14.43;;
41653;SDS011;68687;52.030;7.110;2023-11-19T08:12:21;54.00;;;10.98;;
41653;SDS011;68687;52.030;7.110;2023-11-19T08:14:53;62.80;;;10.85;;
41653;SDS011;68687;52.030;7.110;2023-11-19T08:17:18;49.08;;;9.20;;
41653;SDS011;68687;52.030;7.110;2023-11-19T08:19:43;56.75;;;8.45;;
41653;SDS011;68687;52.030;7.110;2023-11-19T08:22:09;54.13;;;9.30;;
41653;SDS011;68687;52.030;7.110;2023-11-19T08:24:34;43.58;;;7.82;;
41653;SDS011;68687;52.030;7.110;2023-11-19T08:27:00;55.22;;;10.52;;
41653;SDS011;68687;52.030;7.110;2023-11-19T08:29:25;51.25;;;8.90;;
41653;SDS011;68687;52.030;7.110;2023-11-19T08:31:52;51.88;;;9.07;;
41653;SDS011;68687;52.030;7.110;2023-11-19T08:34:17;48.08;;;8.60;;
41653;SDS011;68687;52.030;7.110;2023-11-19T08:36:45;62.22;;;9.82;;
41653;SDS011;68687;52.030;7.110;2023-11-19T08:39:13;48.75;;;8.85;;
41653;SDS011;68687;52.030;7.110;2023-11-19T08:41:39;47.08;;;8.48;;
41653;SDS011;68687;52.030;7.110;2023-11-19T08:44:05;57.38;;;9.93;;
41653;SDS011;68687;52.030;7.110;2023-11-19T08:46:30;52.25;;;11.70;;
41653;SDS011;68687;52.030;7.110;2023-11-19T08:48:55;63.92;;;11.32;;
41653;SDS011;68687;52.030;7.110;2023-11-19T08:51:22;46.13;;;10.13;;
41653;SDS011;68687;52.030;7.110;2023-11-19T08:53:49;51.72;;;9.50;;
41653;SDS011;68687;52.030;7.110;2023-11-19T08:56:15;47.13;;;8.43;;
41653;SDS011;68687;52.030;7.110;2023-11-19T08:58:40;52.40;;;8.50;;
41653;SDS011;68687;52.030;7.110;2023-11-19T09:01:05;52.20;;;9.18;;
41653;SDS011;68687;52.030;7.110;2023-11-19T09:03:31;33.83;;;8.63;;
41653;SDS011;68687;52.030;7.110;2023-11-19T09:05:56;48.78;;;10.70;;
41653;SDS011;68687;52.030;7.110;2023-11-19T09:08:22;48.33;;;8.23;;
41653;SDS011;68687;52.030;7.110;2023-11-19T09:10:47;57.33;;;9.10;;
41653;SDS011;68687;52.030;7.110;2023-11-19T09:13:12;50.58;;;9.48;;
41653;SDS011;68687;52.030;7.110;2023-11-19T09:15:38;72.82;;;13.68;;
41653;SDS011;68687;52.030;7.110;2023-11-19T09:18:03;66.40;;;11.40;;
41653;SDS011;68687;52.030;7.110;2023-11-19T09:20:29;47.22;;;8.98;;
41653;SDS011;68687;52.030;7.110;2023-11-19T09:23:02;46.47;;;8.43;;
41653;SDS011;68687;52.030;7.110;2023-11-19T09:25:31;45.20;;;9.27;;
41653;SDS011;68687;52.030;7.110;2023-11-19T09:27:56;41.75;;;7.93;;
41653;SDS011;68687;52.030;7.110;2023-11-19T09:30:21;54.70;;;8.05;;
41653;SDS011;68687;52.030;7.110;2023-11-19T09:32:47;60.78;;;9.18;;
41653;SDS011;68687;52.030;7.110;2023-11-19T09:35:13;53.63;;;8.85;;
41653;SDS011;68687;52.030;7.110;2023-11-19T09:37:39;47.22;;;8.93;;
41653;SDS011;68687;52.030;7.110;2023-11-19T09:40:07;43.13;;;9.25;;
41653;SDS011;68687;52.030;7.110;2023-11-19T09:42:37;46.90;;;9.02;;
41653;SDS011;68687;52.030;7.110;2023-11-19T09:45:10;45.50;;;7.73;;
41653;SDS011;68687;52.030;7.110;2023-11-19T09:47:39;47.90;;;8.30;;
41653;SDS011;68687;52.030;7.110;2023-11-19T09:50:05;56.90;;;10.48;;
41653;SDS011;68687;52.030;7.110;2023-11-19T09:52:30;45.72;;;8.10;;
41653;SDS011;68687;52.030;7.110;2023-11-19T09:54:56;54.17;;;8.82;;
41653;SDS011;68687;52.030;7.110;2023-11-19T09:57:21;47.67;;;9.52;;
41653;SDS011;68687;52.030;7.110;2023-11-19T09:59:47;53.15;;;9.68;;
41653;SDS011;68687;52.030;7.110;2023-11-19T10:02:12;55.53;;;9.93;;
41653;SDS011;68687;52.030;7.110;2023-11-19T10:04:39;51.58;;;9.27;;
41653;SDS011;68687;52.030;7.110;2023-11-19T10:07:07;54.50;;;8.43;;
41653;SDS011;68687;52.030;7.110;2023-11-19T10:09:32;42.95;;;8.48;;
41653;SDS011;68687;52.030;7.110;2023-11-19T10:11:57;48.67;;;10.05;;
41653;SDS011;68687;52.030;7.110;2023-11-19T10:14:23;54.63;;;10.27;;
41653;SDS011;68687;52.030;7.110;2023-11-19T10:16:48;51.53;;;8.73;;
41653;SDS011;68687;52.030;7.110;2023-11-19T10:19:20;50.15;;;9.68;;
41653;SDS011;68687;52.030;7.110;2023-11-19T10:21:48;56.40;;;10.80;;
41653;SDS011;68687;52.030;7.110;2023-11-19T10:24:13;64.53;;;13.63;;
41653;SDS011;68687;52.030;7.110;2023-11-19T10:26:39;44.50;;;9.88;;
41653;SDS011;68687;52.030;7.110;2023-11-19T10:29:05;51.08;;;10.80;;
41653;SDS011;68687;52.030;7.110;2023-11-19T10:31:30;48.03;;;11.23;;
41653;SDS011;68687;52.030;7.110;2023-11-19T10:33:56;38.83;;;10.35;;
41653;SDS011;68687;52.030;7.110;2023-11-19T10:36:21;45.95;;;8.88;;
41653;SDS011;68687;52.030;7.110;2023-11-19T10:38:52;44.17;;;10.18;;
41653;SDS011;68687;52.030;7.110;2023-11-19T10:41:31;50.33;;;12.00;;
41653;SDS011;68687;52.030;7.110;2023-11-19T10:43:57;46.78;;;10.98;;
41653;SDS011;68687;52.030;7.110;2023-11-19T10:46:23;60.10;;;12.43;;
41653;SDS011;68687;52.030;7.110;2023-11-19T10:49:01;41.08;;;9.80;;
41653;SDS011;68687;52.030;7.110;2023-11-19T10:51:26;48.45;;;9.48;;
41653;SDS011;68687;52.030;7.110;2023-11-19T10:53:53;52.10;;;11.65;;
41653;SDS011;68687;52.030;7.110;2023-11-19T10:56:26;39.42;;;9.57;;
41653;SDS011;68687;52.030;7.110;2023-11-19T10:58:56;56.03;;;9.73;;
41653;SDS011;68687;52.030;7.110;2023-11-19T11:01:24;42.63;;;8.65;;
41653;SDS011;68687;52.030;7.110;2023-11-19T11:03:58;56.85;;;10.25;;
41653;SDS011;68687;52.030;7.110;2023-11-19T11:06:25;47.25;;;8.80;;
41653;SDS011;68687;52.030;7.110;2023-11-19T11:08:51;41.10;;;9.00;;
41653;SDS011;68687;52.030;7.110;2023-11-19T11:11:18;44.25;;;13.13;;
41653;SDS011;68687;52.030;7.110;2023-11-19T11:13:46;50.20;;;11.77;;
41653;SDS011;68687;52.030;7.110;2023-11-19T11:16:12;59.35;;;10.60;;
41653;SDS011;68687;52.030;7.110;2023-11-19T11:18:39;39.03;;;8.13;;
41653;SDS011;68687;52.030;7.110;2023-11-19T11:21:08;49.60;;;10.88;;
41653;SDS011;68687;52.030;7.110;2023-11-19T11:27:02;46.40;;;9.27;;
41653;SDS011;68687;52.030;7.110;2023-11-19T11:32:41;43.00;;;9.68;;
41653;SDS011;68687;52.030;7.110;2023-11-19T11:35:19;53.55;;;9.85;;
41653;SDS011;68687;52.030;7.110;2023-11-19T11:38:04;43.45;;;9.00;;
41653;SDS011;68687;52.030;7.110;2023-11-19T11:40:32;46.30;;;8.27;;
41653;SDS011;68687;52.030;7.110;2023-11-19T11:42:57;50.00;;;8.25;;
41653;SDS011;68687;52.030;7.110;2023-11-19T11:45:36;47.95;;;8.82;;
41653;SDS011;68687;52.030;7.110;2023-11-19T11:48:16;38.63;;;9.65;;
41653;SDS011;68687;52.030;7.110;2023-11-19T11:50:48;58.55;;;10.00;;
41653;SDS011;68687;52.030;7.110;2023-11-19T11:53:18;40.47;;;8.13;;
41653;SDS011;68687;52.030;7.110;2023-11-19T11:58:12;39.53;;;11.10;;
41653;SDS011;68687;52.030;7.110;2023-11-19T12:00:39;47.17;;;11.48;;
41653;SDS011;68687;52.030;7.110;2023-11-19T12:03:06;42.60;;;7.60;;
41653;SDS011;68687;52.030;7.110;2023-11-19T12:05:33;50.40;;;7.97;;
41653;SDS011;68687;52.030;7.110;2023-11-19T12:08:04;42.15;;;9.40;;
41653;SDS011;68687;52.030;7.110;2023-11-19T12:10:32;34.70;;;8.45;;
41653;SDS011;68687;52.030;7.110;2023-11-19T12:13:06;43.83;;;9.13;;
41653;SDS011;68687;52.030;7.110;2023-11-19T12:16:06;46.75;;;9.13;;
41653;SDS011;68687;52.030;7.110;2023-11-19T12:18:19;44.45;;;8.35;;
41653;SDS011;68687;52.030;7.110;2023-11-19T12:20:48;42.45;;;8.57;;
41653;SDS011;68687;52.030;7.110;2023-11-19T12:23:13;49.97;;;8.48;;
41653;SDS011;68687;52.030;7.110;2023-11-19T12:25:39;41.17;;;9.48;;
41653;SDS011;68687;52.030;7.110;2023-11-19T12:28:05;53.80;;;11.38;;
41653;SDS011;68687;52.030;7.110;2023-11-19T12:30:36;34.08;;;8.35;;
41653;SDS011;68687;52.030;7.110;2023-11-19T12:33:07;39.05;;;8.52;;
41653;SDS011;68687;52.030;7.110;2023-11-19T12:35:43;46.35;;;8.80;;
41653;SDS011;68687;52.030;7.110;2023-11-19T12:38:23;31.35;;;8.77;;
41653;SDS011;68687;52.030;7.110;2023-11-19T12:41:02;34.35;;;9.73;;
41653;SDS011;68687;52.030;7.110;2023-11-19T12:43:29;46.38;;;10.50;;
41653;SDS011;68687;52.030;7.110;2023-11-19T12:46:00;39.13;;;9.38;;
41653;SDS011;68687;52.030;7.110;2023-11-19T12:48:25;37.63;;;8.05;;
41653;SDS011;68687;52.030;7.110;2023-11-19T12:50:57;36.88;;;9.00;;
41653;SDS011;68687;52.030;7.110;2023-11-19T12:53:24;37.20;;;10.75;;
41653;SDS011;68687;52.030;7.110;2023-11-19T12:55:51;43.50;;;9.95;;
41653;SDS011;68687;52.030;7.110;2023-11-19T12:58:38;38.42;;;10.68;;
41653;SDS011;68687;52.030;7.110;2023-11-19T13:01:04;41.40;;;10.45;;
41653;SDS011;68687;52.030;7.110;2023-11-19T13:03:34;36.75;;;9.57;;
41653;SDS011;68687;52.030;7.110;2023-11-19T13:08:29;47.88;;;12.77;;
41653;SDS011;68687;52.030;7.110;2023-11-19T13:11:02;49.88;;;13.82;;
41653;SDS011;68687;52.030;7.110;2023-11-19T13:13:28;44.13;;;10.13;;
41653;SDS011;68687;52.030;7.110;2023-11-19T13:15:53;38.65;;;10.23;;
41653;SDS011;68687;52.030;7.110;2023-11-19T13:18:26;36.55;;;8.07;;
41653;SDS011;68687;52.030;7.110;2023-11-19T13:20:51;38.28;;;8.40;;
41653;SDS011;68687;52.030;7.110;2023-11-19T13:23:16;45.03;;;8.95;;
41653;SDS011;68687;52.030;7.110;2023-11-19T13:25:44;52.33;;;10.48;;
41653;SDS011;68687;52.030;7.110;2023-11-19T13:28:10;43.78;;;11.52;;
41653;SDS011;68687;52.030;7.110;2023-11-19T13:30:35;37.67;;;11.48;;
41653;SDS011;68687;52.030;7.110;2023-11-19T13:33:01;34.20;;;11.63;;
41653;SDS011;68687;52.030;7.110;2023-11-19T13:35:26;36.80;;;12.65;;
41653;SDS011;68687;52.030;7.110;2023-11-19T13:37:52;32.88;;;8.75;;
41653;SDS011;68687;52.030;7.110;2023-11-19T13:40:18;35.97;;;7.55;;
41653;SDS011;68687;52.030;7.110;2023-11-19T13:42:53;25.98;;;7.13;;
41653;SDS011;68687;52.030;7.110;2023-11-19T13:45:18;33.95;;;7.28;;
41653;SDS011;68687;52.030;7.110;2023-11-19T13:47:45;31.30;;;7.55;;
41653;SDS011;68687;52.030;7.110;2023-11-19T13:50:12;34.90;;;7.72;;
41653;SDS011;68687;52.030;7.110;2023-11-19T13:52:39;31.52;;;8.10;;
41653;SDS011;68687;52.030;7.110;2023-11-19T13:55:13;37.78;;;9.73;;
41653;SDS011;68687;52.030;7.110;2023-11-19T13:57:40;36.70;;;11.80;;
41653;SDS011;68687;52.030;7.110;2023-11-19T14:00:07;34.28;;;6.65;;
41653;SDS011;68687;52.030;7.110;2023-11-19T14:02:44;38.33;;;6.60;;
41653;SDS011;68687;52.030;7.110;2023-11-19T14:05:15;29.85;;;7.80;;
41653;SDS011;68687;52.030;7.110;2023-11-19T14:07:42;39.38;;;6.70;;
41653;SDS011;68687;52.030;7.110;2023-11-19T14:10:08;23.60;;;7.30;;
41653;SDS011;68687;52.030;7.110;2023-11-19T14:12:34;33.25;;;7.15;;
41653;SDS011;68687;52.030;7.110;2023-11-19T14:15:05;39.10;;;8.00;;
41653;SDS011;68687;52.030;7.110;2023-11-19T14:17:31;30.45;;;6.85;;
41653;SDS011;68687;52.030;7.110;2023-11-19T14:19:57;32.53;;;8.13;;
41653;SDS011;68687;52.030;7.110;2023-11-19T14:22:22;35.65;;;7.22;;
41653;SDS011;68687;52.030;7.110;2023-11-19T14:24:48;29.95;;;6.53;;
41653;SDS011;68687;52.030;7.110;2023-11-19T14:27:13;24.88;;;6.32;;
41653;SDS011;68687;52.030;7.110;2023-11-19T14:29:41;30.85;;;7.22;;
41653;SDS011;68687;52.030;7.110;2023-11-19T14:32:07;27.35;;;6.38;;
41653;SDS011;68687;52.030;7.110;2023-11-19T14:34:32;34.83;;;7.00;;
41653;SDS011;68687;52.030;7.110;2023-11-19T14:36:58;28.85;;;6.95;;
41653;SDS011;68687;52.030;7.110;2023-11-19T14:39:23;30.25;;;7.05;;
41653;SDS011;68687;52.030;7.110;2023-11-19T14:41:49;25.45;;;6.60;;
41653;SDS011;68687;52.030;7.110;2023-11-19T14:44:18;35.85;;;8.15;;
41653;SDS011;68687;52.030;7.110;2023-11-19T14:46:45;32.35;;;7.15;;
41653;SDS011;68687;52.030;7.110;2023-11-19T14:49:10;35.78;;;8.35;;